sensor_id;sensor_type;location;lat;lon;timestamp;temperature;humidity
8676;DHT22;4375;52.486;13.424;2024-03-22T00:01:13;8.70;99.90
8676;DHT22;4375;52.486;13.424;2024-03-22T00:03:39;8.70;99.90
8676;DHT22;4375;52.486;13.424;2024-03-22T00:06:04;8.70;99.90
8676;DHT22;4375;52.486;13.424;2024-03-22T00:08:30;8.70;99.90
8676;DHT22;4375;52.486;13.424;2024-03-22T00:10:55;8.80;99.90
8676;DHT22;4375;52.486;13.424;2024-03-22T00:13:21;8.70;99.90
8676;DHT22;4375;52.486;13.424;2024-03-22T00:15:47;8.70;99.90
8676;DHT22;4375;52.486;13.424;2024-03-22T00:18:12;8.60;99.90
8676;DHT22;4375;52.486;13.424;2024-03-22T00:20:38;8.70;99.90
8676;DHT22;4375;52.486;13.424;2024-03-22T00:23:04;8.70;99.90
8676;DHT22;4375;52.486;13.424;2024-03-22T00:25:30;8.70;99.90
8676;DHT22;4375;52.486;13.424;2024-03-22T00:27:56;8.80;99.90
8676;DHT22;4375;52.486;13.424;2024-03-22T00:30:21;8.80;99.90
8676;DHT22;4375;52.486;13.424;2024-03-22T00:32:47;8.90;99.90
8676;DHT22;4375;52.486;13.424;2024-03-22T00:35:13;8.80;99.90
8676;DHT22;4375;52.486;13.424;2024-03-22T00:37:38;8.70;99.90
8676;DHT22;4375;52.486;13.424;2024-03-22T00:40:04;8.80;99.90
8676;DHT22;4375;52.486;13.424;2024-03-22T00:42:30;8.90;99.90
8676;DHT22;4375;52.486;13.424;2024-03-22T00:44:56;8.90;99.90
8676;DHT22;4375;52.486;13.424;2024-03-22T00:47:23;8.80;99.90
8676;DHT22;4375;52.486;13.424;2024-03-22T00:49:49;8.80;99.90
8676;DHT22;4375;52.486;13.424;2024-03-22T00:52:14;8.80;99.90
8676;DHT22;4375;52.486;13.424;2024-03-22T00:54:40;8.70;99.90
8676;DHT22;4375;52.486;13.424;2024-03-22T00:57:06;8.70;99.90
8676;DHT22;4375;52.486;13.424;2024-03-22T00:59:32;8.80;99.90
8676;DHT22;4375;52.486;13.424;2024-03-22T01:01:57;8.80;99.90
8676;DHT22;4375;52.486;13.424;2024-03-22T01:04:23;8.80;99.90
8676;DHT22;4375;52.486;13.424;2024-03-22T01:06:48;8.80;99.90
8676;DHT22;4375;52.486;13.424;2024-03-22T01:09:14;8.70;99.90
8676;DHT22;4375;52.486;13.424;2024-03-22T01:11:40;8.60;99.90
8676;DHT22;4375;52.486;13.424;2024-03-22T01:14:06;8.60;99.90
8676;DHT22;4375;52.486;13.424;2024-03-22T01:16:34;8.60;99.90
8676;DHT22;4375;52.486;13.424;2024-03-22T01:18:59;8.60;99.90
8676;DHT22;4375;52.486;13.424;2024-03-22T01:21:25;8.60;99.90
8676;DHT22;4375;52.486;13.424;2024-03-22T01:23:54;8.60;99.90
8676;DHT22;4375;52.486;13.424;2024-03-22T01:26:19;8.60;99.90
8676;DHT22;4375;52.486;13.424;2024-03-22T01:28:46;8.60;99.90
8676;DHT22;4375;52.486;13.424;2024-03-22T01:31:11;8.50;99.90
8676;DHT22;4375;52.486;13.424;2024-03-22T01:33:37;8.60;99.90
8676;DHT22;4375;52.486;13.424;2024-03-22T01:36:03;8.50;99.90
8676;DHT22;4375;52.486;13.424;2024-03-22T01:38:30;8.60;99.90
8676;DHT22;4375;52.486;13.424;2024-03-22T01:40:56;8.70;99.90
8676;DHT22;4375;52.486;13.424;2024-03-22T01:43:21;8.70;99.90
8676;DHT22;4375;52.486;13.424;2024-03-22T01:45:47;8.60;99.90
8676;DHT22;4375;52.486;13.424;2024-03-22T01:48:14;8.60;99.90
8676;DHT22;4375;52.486;13.424;2024-03-22T01:50:39;8.60;99.90
8676;DHT22;4375;52.486;13.424;2024-03-22T01:53:06;8.60;99.90
8676;DHT22;4375;52.486;13.424;2024-03-22T01:55:31;8.70;99.90
8676;DHT22;4375;52.486;13.424;2024-03-22T01:57:57;8.60;99.90
8676;DHT22;4375;52.486;13.424;2024-03-22T02:00:22;8.60;99.90
8676;DHT22;4375;52.486;13.424;2024-03-22T02:02:48;8.60;99.90
8676;DHT22;4375;52.486;13.424;2024-03-22T02:05:18;8.50;99.90
8676;DHT22;4375;52.486;13.424;2024-03-22T02:07:49;8.50;99.90
8676;DHT22;4375;52.486;13.424;2024-03-22T02:10:15;8.60;99.90
8676;DHT22;4375;52.486;13.424;2024-03-22T02:12:41;8.60;99.90
8676;DHT22;4375;52.486;13.424;2024-03-22T02:15:07;8.70;99.90
8676;DHT22;4375;52.486;13.424;2024-03-22T02:17:34;8.80;99.90
8676;DHT22;4375;52.486;13.424;2024-03-22T02:20:00;8.70;99.90
8676;DHT22;4375;52.486;13.424;2024-03-22T02:22:26;8.70;99.90
8676;DHT22;4375;52.486;13.424;2024-03-22T02:24:52;8.80;99.90
8676;DHT22;4375;52.486;13.424;2024-03-22T02:27:18;8.80;99.90
8676;DHT22;4375;52.486;13.424;2024-03-22T02:29:43;8.80;99.90
8676;DHT22;4375;52.486;13.424;2024-03-22T02:32:09;8.80;99.90
8676;DHT22;4375;52.486;13.424;2024-03-22T02:34:35;8.70;99.90
8676;DHT22;4375;52.486;13.424;2024-03-22T02:37:01;8.70;99.90
8676;DHT22;4375;52.486;13.424;2024-03-22T02:39:27;8.60;99.90
8676;DHT22;4375;52.486;13.424;2024-03-22T02:41:54;8.60;99.90
8676;DHT22;4375;52.486;13.424;2024-03-22T02:44:19;8.60;99.90
8676;DHT22;4375;52.486;13.424;2024-03-22T02:46:45;8.60;99.90
8676;DHT22;4375;52.486;13.424;2024-03-22T02:49:10;8.70;99.90
8676;DHT22;4375;52.486;13.424;2024-03-22T02:51:36;8.70;99.90
8676;DHT22;4375;52.486;13.424;2024-03-22T02:54:02;8.60;99.90
8676;DHT22;4375;52.486;13.424;2024-03-22T02:56:27;8.60;99.90
8676;DHT22;4375;52.486;13.424;2024-03-22T02:58:53;8.70;99.90
8676;DHT22;4375;52.486;13.424;2024-03-22T03:01:18;8.60;99.90
8676;DHT22;4375;52.486;13.424;2024-03-22T03:03:44;8.60;99.90
8676;DHT22;4375;52.486;13.424;2024-03-22T03:06:10;8.60;99.90
8676;DHT22;4375;52.486;13.424;2024-03-22T03:08:38;8.60;99.90
8676;DHT22;4375;52.486;13.424;2024-03-22T03:11:04;8.60;99.90
8676;DHT22;4375;52.486;13.424;2024-03-22T03:13:29;8.70;99.90
8676;DHT22;4375;52.486;13.424;2024-03-22T03:15:55;8.70;99.90
8676;DHT22;4375;52.486;13.424;2024-03-22T03:18:20;8.60;99.90
8676;DHT22;4375;52.486;13.424;2024-03-22T03:20:46;8.60;99.90
8676;DHT22;4375;52.486;13.424;2024-03-22T03:23:11;8.60;99.90
8676;DHT22;4375;52.486;13.424;2024-03-22T03:25:37;8.60;99.90
8676;DHT22;4375;52.486;13.424;2024-03-22T03:28:02;8.60;99.90
8676;DHT22;4375;52.486;13.424;2024-03-22T03:30:28;8.60;99.90
8676;DHT22;4375;52.486;13.424;2024-03-22T03:32:54;8.70;99.90
8676;DHT22;4375;52.486;13.424;2024-03-22T03:35:19;8.70;99.90
8676;DHT22;4375;52.486;13.424;2024-03-22T03:37:45;8.70;99.90
8676;DHT22;4375;52.486;13.424;2024-03-22T03:40:10;8.70;99.90
8676;DHT22;4375;52.486;13.424;2024-03-22T03:42:36;8.70;99.90
8676;DHT22;4375;52.486;13.424;2024-03-22T03:45:02;8.70;99.90
8676;DHT22;4375;52.486;13.424;2024-03-22T03:47:27;8.70;99.90
8676;DHT22;4375;52.486;13.424;2024-03-22T03:49:53;8.70;99.90
8676;DHT22;4375;52.486;13.424;2024-03-22T03:52:18;8.70;99.90
8676;DHT22;4375;52.486;13.424;2024-03-22T03:54:44;8.80;99.90
8676;DHT22;4375;52.486;13.424;2024-03-22T03:57:09;8.70;99.90
8676;DHT22;4375;52.486;13.424;2024-03-22T03:59:35;8.80;99.90
8676;DHT22;4375;52.486;13.424;2024-03-22T04:02:00;8.80;99.90
8676;DHT22;4375;52.486;13.424;2024-03-22T04:04:26;8.80;99.90
8676;DHT22;4375;52.486;13.424;2024-03-22T04:06:52;8.70;99.90
8676;DHT22;4375;52.486;13.424;2024-03-22T04:09:17;8.80;99.90
8676;DHT22;4375;52.486;13.424;2024-03-22T04:11:43;8.70;99.90
8676;DHT22;4375;52.486;13.424;2024-03-22T04:14:09;8.70;99.90
8676;DHT22;4375;52.486;13.424;2024-03-22T04:16:35;8.80;99.90
8676;DHT22;4375;52.486;13.424;2024-03-22T04:19:00;8.70;99.90
8676;DHT22;4375;52.486;13.424;2024-03-22T04:21:26;8.80;99.90
8676;DHT22;4375;52.486;13.424;2024-03-22T04:23:51;8.80;99.90
8676;DHT22;4375;52.486;13.424;2024-03-22T04:26:17;8.80;99.90
8676;DHT22;4375;52.486;13.424;2024-03-22T04:28:42;8.80;99.90
8676;DHT22;4375;52.486;13.424;2024-03-22T04:31:09;8.80;99.90
8676;DHT22;4375;52.486;13.424;2024-03-22T04:33:36;8.80;99.90
8676;DHT22;4375;52.486;13.424;2024-03-22T04:36:02;8.80;99.90
8676;DHT22;4375;52.486;13.424;2024-03-22T04:38:28;8.80;99.90
8676;DHT22;4375;52.486;13.424;2024-03-22T04:40:55;8.80;99.90
8676;DHT22;4375;52.486;13.424;2024-03-22T04:43:22;8.80;99.90
8676;DHT22;4375;52.486;13.424;2024-03-22T04:45:48;8.80;99.90
8676;DHT22;4375;52.486;13.424;2024-03-22T04:48:16;8.80;99.90
8676;DHT22;4375;52.486;13.424;2024-03-22T04:50:42;8.80;99.90
8676;DHT22;4375;52.486;13.424;2024-03-22T04:53:08;8.80;99.90
8676;DHT22;4375;52.486;13.424;2024-03-22T04:55:33;8.70;99.90
8676;DHT22;4375;52.486;13.424;2024-03-22T04:57:59;8.80;99.90
8676;DHT22;4375;52.486;13.424;2024-03-22T05:00:25;8.90;99.90
8676;DHT22;4375;52.486;13.424;2024-03-22T05:02:51;8.80;99.90
8676;DHT22;4375;52.486;13.424;2024-03-22T05:05:17;8.70;99.90
8676;DHT22;4375;52.486;13.424;2024-03-22T05:07:42;8.70;99.90
8676;DHT22;4375;52.486;13.424;2024-03-22T05:10:08;8.70;99.90
8676;DHT22;4375;52.486;13.424;2024-03-22T05:12:35;8.70;99.90
8676;DHT22;4375;52.486;13.424;2024-03-22T05:15:00;8.70;99.90
8676;DHT22;4375;52.486;13.424;2024-03-22T05:17:26;8.70;99.90
8676;DHT22;4375;52.486;13.424;2024-03-22T05:19:51;8.60;99.90
8676;DHT22;4375;52.486;13.424;2024-03-22T05:22:17;8.70;99.90
8676;DHT22;4375;52.486;13.424;2024-03-22T05:24:45;8.70;99.90
8676;DHT22;4375;52.486;13.424;2024-03-22T05:27:11;8.70;99.90
8676;DHT22;4375;52.486;13.424;2024-03-22T05:29:38;8.80;99.90
8676;DHT22;4375;52.486;13.424;2024-03-22T05:32:03;8.80;99.90
8676;DHT22;4375;52.486;13.424;2024-03-22T05:34:29;8.80;99.90
8676;DHT22;4375;52.486;13.424;2024-03-22T05:36:55;8.80;99.90
8676;DHT22;4375;52.486;13.424;2024-03-22T05:39:21;8.80;99.90
8676;DHT22;4375;52.486;13.424;2024-03-22T05:41:46;8.80;99.90
8676;DHT22;4375;52.486;13.424;2024-03-22T05:44:12;8.70;99.90
8676;DHT22;4375;52.486;13.424;2024-03-22T05:46:37;8.80;99.90
8676;DHT22;4375;52.486;13.424;2024-03-22T05:49:03;8.90;99.90
8676;DHT22;4375;52.486;13.424;2024-03-22T05:51:28;9.00;99.90
8676;DHT22;4375;52.486;13.424;2024-03-22T05:53:56;9.00;99.90
8676;DHT22;4375;52.486;13.424;2024-03-22T05:56:22;9.00;99.90
8676;DHT22;4375;52.486;13.424;2024-03-22T05:58:47;9.00;99.90
8676;DHT22;4375;52.486;13.424;2024-03-22T06:01:13;9.10;99.90
8676;DHT22;4375;52.486;13.424;2024-03-22T06:03:39;9.20;99.90
8676;DHT22;4375;52.486;13.424;2024-03-22T06:06:04;9.10;99.90
8676;DHT22;4375;52.486;13.424;2024-03-22T06:08:30;9.20;99.90
8676;DHT22;4375;52.486;13.424;2024-03-22T06:11:00;9.30;99.90
8676;DHT22;4375;52.486;13.424;2024-03-22T06:13:26;9.30;99.90
8676;DHT22;4375;52.486;13.424;2024-03-22T06:15:52;9.40;99.90
8676;DHT22;4375;52.486;13.424;2024-03-22T06:18:17;9.30;99.90
8676;DHT22;4375;52.486;13.424;2024-03-22T06:20:43;9.30;99.90
8676;DHT22;4375;52.486;13.424;2024-03-22T06:23:09;9.30;99.90
8676;DHT22;4375;52.486;13.424;2024-03-22T06:25:35;9.30;99.90
8676;DHT22;4375;52.486;13.424;2024-03-22T06:28:00;9.40;99.90
8676;DHT22;4375;52.486;13.424;2024-03-22T06:30:29;9.40;99.90
8676;DHT22;4375;52.486;13.424;2024-03-22T06:32:54;9.40;99.90
8676;DHT22;4375;52.486;13.424;2024-03-22T06:35:20;9.40;99.90
8676;DHT22;4375;52.486;13.424;2024-03-22T06:37:46;9.50;99.90
8676;DHT22;4375;52.486;13.424;2024-03-22T06:40:12;9.50;99.90
8676;DHT22;4375;52.486;13.424;2024-03-22T06:42:37;9.40;99.90
8676;DHT22;4375;52.486;13.424;2024-03-22T06:45:03;9.40;99.90
8676;DHT22;4375;52.486;13.424;2024-03-22T06:47:29;9.50;99.90
8676;DHT22;4375;52.486;13.424;2024-03-22T06:49:54;9.60;99.90
8676;DHT22;4375;52.486;13.424;2024-03-22T06:52:20;9.60;99.90
8676;DHT22;4375;52.486;13.424;2024-03-22T06:54:46;9.60;99.90
8676;DHT22;4375;52.486;13.424;2024-03-22T06:57:12;9.50;99.90
8676;DHT22;4375;52.486;13.424;2024-03-22T06:59:37;9.40;99.90
8676;DHT22;4375;52.486;13.424;2024-03-22T07:02:03;9.40;99.90
8676;DHT22;4375;52.486;13.424;2024-03-22T07:04:29;9.40;99.90
8676;DHT22;4375;52.486;13.424;2024-03-22T07:06:55;9.50;99.90
8676;DHT22;4375;52.486;13.424;2024-03-22T07:09:20;9.60;99.90
8676;DHT22;4375;52.486;13.424;2024-03-22T07:11:46;9.70;99.90
8676;DHT22;4375;52.486;13.424;2024-03-22T07:14:11;9.70;99.90
8676;DHT22;4375;52.486;13.424;2024-03-22T07:16:37;9.70;99.90
8676;DHT22;4375;52.486;13.424;2024-03-22T07:19:03;9.70;99.90
8676;DHT22;4375;52.486;13.424;2024-03-22T07:21:29;9.80;99.90
8676;DHT22;4375;52.486;13.424;2024-03-22T07:23:55;9.90;99.90
8676;DHT22;4375;52.486;13.424;2024-03-22T07:26:21;9.90;99.90
8676;DHT22;4375;52.486;13.424;2024-03-22T07:28:46;9.90;99.90
8676;DHT22;4375;52.486;13.424;2024-03-22T07:31:12;9.90;99.90
8676;DHT22;4375;52.486;13.424;2024-03-22T07:33:39;10.00;99.90
8676;DHT22;4375;52.486;13.424;2024-03-22T07:36:05;10.00;99.90
8676;DHT22;4375;52.486;13.424;2024-03-22T07:38:30;10.00;99.90
8676;DHT22;4375;52.486;13.424;2024-03-22T07:40:56;10.00;99.90
8676;DHT22;4375;52.486;13.424;2024-03-22T07:43:22;10.10;99.90
8676;DHT22;4375;52.486;13.424;2024-03-22T07:45:47;10.20;99.90
8676;DHT22;4375;52.486;13.424;2024-03-22T07:48:13;10.30;99.90
8676;DHT22;4375;52.486;13.424;2024-03-22T07:50:38;10.20;99.90
8676;DHT22;4375;52.486;13.424;2024-03-22T07:53:04;10.30;99.90
8676;DHT22;4375;52.486;13.424;2024-03-22T07:55:29;10.30;99.90
8676;DHT22;4375;52.486;13.424;2024-03-22T07:57:55;10.30;99.90
8676;DHT22;4375;52.486;13.424;2024-03-22T08:00:21;10.50;99.90
8676;DHT22;4375;52.486;13.424;2024-03-22T08:02:47;10.50;99.90
8676;DHT22;4375;52.486;13.424;2024-03-22T08:05:12;10.50;99.90
8676;DHT22;4375;52.486;13.424;2024-03-22T08:07:41;10.60;99.90
8676;DHT22;4375;52.486;13.424;2024-03-22T08:10:09;10.60;99.90
8676;DHT22;4375;52.486;13.424;2024-03-22T08:12:34;10.60;99.90
8676;DHT22;4375;52.486;13.424;2024-03-22T08:15:00;10.80;99.90
8676;DHT22;4375;52.486;13.424;2024-03-22T08:17:25;10.80;99.90
8676;DHT22;4375;52.486;13.424;2024-03-22T08:19:51;10.70;99.90
8676;DHT22;4375;52.486;13.424;2024-03-22T08:22:16;10.80;99.90
8676;DHT22;4375;52.486;13.424;2024-03-22T08:24:42;10.90;99.90
8676;DHT22;4375;52.486;13.424;2024-03-22T08:27:07;11.00;99.90
8676;DHT22;4375;52.486;13.424;2024-03-22T08:29:33;11.00;99.90
8676;DHT22;4375;52.486;13.424;2024-03-22T08:31:58;11.10;99.90
8676;DHT22;4375;52.486;13.424;2024-03-22T08:34:24;11.00;99.90
8676;DHT22;4375;52.486;13.424;2024-03-22T08:36:49;11.00;99.90
8676;DHT22;4375;52.486;13.424;2024-03-22T08:39:15;11.00;99.90
8676;DHT22;4375;52.486;13.424;2024-03-22T08:41:41;10.90;99.90
8676;DHT22;4375;52.486;13.424;2024-03-22T08:44:06;10.90;99.90
8676;DHT22;4375;52.486;13.424;2024-03-22T08:46:32;10.90;99.90
8676;DHT22;4375;52.486;13.424;2024-03-22T08:48:58;10.90;99.90
8676;DHT22;4375;52.486;13.424;2024-03-22T08:51:23;11.00;99.90
8676;DHT22;4375;52.486;13.424;2024-03-22T08:53:49;11.10;99.90
8676;DHT22;4375;52.486;13.424;2024-03-22T08:56:14;11.30;99.90
8676;DHT22;4375;52.486;13.424;2024-03-22T08:58:40;11.30;99.90
8676;DHT22;4375;52.486;13.424;2024-03-22T09:01:06;11.30;99.90
8676;DHT22;4375;52.486;13.424;2024-03-22T09:03:31;11.30;99.90
8676;DHT22;4375;52.486;13.424;2024-03-22T09:05:57;11.40;99.90
8676;DHT22;4375;52.486;13.424;2024-03-22T09:08:23;11.50;99.90
8676;DHT22;4375;52.486;13.424;2024-03-22T09:10:48;11.50;99.90
8676;DHT22;4375;52.486;13.424;2024-03-22T09:13:14;11.50;99.90
8676;DHT22;4375;52.486;13.424;2024-03-22T09:15:40;11.60;99.90
8676;DHT22;4375;52.486;13.424;2024-03-22T09:18:05;11.80;99.90
8676;DHT22;4375;52.486;13.424;2024-03-22T09:20:31;11.70;99.90
8676;DHT22;4375;52.486;13.424;2024-03-22T09:22:57;12.10;99.90
8676;DHT22;4375;52.486;13.424;2024-03-22T09:25:27;12.10;99.90
8676;DHT22;4375;52.486;13.424;2024-03-22T09:27:52;12.40;99.90
8676;DHT22;4375;52.486;13.424;2024-03-22T09:30:18;12.20;99.90
8676;DHT22;4375;52.486;13.424;2024-03-22T09:32:44;12.10;99.90
8676;DHT22;4375;52.486;13.424;2024-03-22T09:35:16;12.30;99.90
8676;DHT22;4375;52.486;13.424;2024-03-22T09:37:43;12.10;99.90
8676;DHT22;4375;52.486;13.424;2024-03-22T09:40:09;12.10;99.90
8676;DHT22;4375;52.486;13.424;2024-03-22T09:42:38;12.30;99.90
8676;DHT22;4375;52.486;13.424;2024-03-22T09:45:08;12.40;99.90
8676;DHT22;4375;52.486;13.424;2024-03-22T09:47:34;12.60;99.90
8676;DHT22;4375;52.486;13.424;2024-03-22T09:50:01;12.60;99.90
8676;DHT22;4375;52.486;13.424;2024-03-22T09:52:28;12.70;99.90
8676;DHT22;4375;52.486;13.424;2024-03-22T09:54:53;12.80;99.90
8676;DHT22;4375;52.486;13.424;2024-03-22T09:57:21;12.70;99.90
8676;DHT22;4375;52.486;13.424;2024-03-22T09:59:48;12.80;99.90
8676;DHT22;4375;52.486;13.424;2024-03-22T10:02:13;12.90;99.90
8676;DHT22;4375;52.486;13.424;2024-03-22T10:04:40;12.90;99.90
8676;DHT22;4375;52.486;13.424;2024-03-22T10:07:06;13.00;99.90
8676;DHT22;4375;52.486;13.424;2024-03-22T10:09:33;13.10;99.90
8676;DHT22;4375;52.486;13.424;2024-03-22T10:11:59;13.00;99.90
8676;DHT22;4375;52.486;13.424;2024-03-22T10:14:25;13.20;99.90
8676;DHT22;4375;52.486;13.424;2024-03-22T10:16:53;13.20;99.90
8676;DHT22;4375;52.486;13.424;2024-03-22T10:19:20;13.20;99.90
8676;DHT22;4375;52.486;13.424;2024-03-22T10:22:05;13.20;99.90
8676;DHT22;4375;52.486;13.424;2024-03-22T10:24:33;13.30;99.90
8676;DHT22;4375;52.486;13.424;2024-03-22T10:26:59;13.40;99.90
8676;DHT22;4375;52.486;13.424;2024-03-22T10:29:25;13.40;99.90
8676;DHT22;4375;52.486;13.424;2024-03-22T10:31:57;13.50;99.90
8676;DHT22;4375;52.486;13.424;2024-03-22T10:34:24;13.40;99.90
8676;DHT22;4375;52.486;13.424;2024-03-22T10:36:50;13.60;99.90
8676;DHT22;4375;52.486;13.424;2024-03-22T10:39:17;13.50;99.90
8676;DHT22;4375;52.486;13.424;2024-03-22T10:41:46;13.50;99.90
8676;DHT22;4375;52.486;13.424;2024-03-22T10:44:13;13.50;99.90
8676;DHT22;4375;52.486;13.424;2024-03-22T10:46:44;13.60;99.90
8676;DHT22;4375;52.486;13.424;2024-03-22T10:49:18;13.70;99.90
8676;DHT22;4375;52.486;13.424;2024-03-22T10:51:51;13.90;99.90
8676;DHT22;4375;52.486;13.424;2024-03-22T10:54:20;13.90;99.90
8676;DHT22;4375;52.486;13.424;2024-03-22T10:56:48;14.20;99.90
8676;DHT22;4375;52.486;13.424;2024-03-22T10:59:18;14.20;99.90
8676;DHT22;4375;52.486;13.424;2024-03-22T11:01:46;14.40;99.90
8676;DHT22;4375;52.486;13.424;2024-03-22T11:04:11;14.60;99.90
8676;DHT22;4375;52.486;13.424;2024-03-22T11:06:37;14.70;99.90
8676;DHT22;4375;52.486;13.424;2024-03-22T11:09:03;14.60;99.90
8676;DHT22;4375;52.486;13.424;2024-03-22T11:11:34;14.50;99.90
8676;DHT22;4375;52.486;13.424;2024-03-22T11:14:06;14.60;99.90
8676;DHT22;4375;52.486;13.424;2024-03-22T11:16:31;14.40;99.90
8676;DHT22;4375;52.486;13.424;2024-03-22T11:18:57;14.50;99.90
8676;DHT22;4375;52.486;13.424;2024-03-22T11:21:22;14.50;99.90
8676;DHT22;4375;52.486;13.424;2024-03-22T11:23:48;14.50;99.90
8676;DHT22;4375;52.486;13.424;2024-03-22T11:26:14;14.40;99.90
8676;DHT22;4375;52.486;13.424;2024-03-22T11:28:40;14.20;99.90
8676;DHT22;4375;52.486;13.424;2024-03-22T11:31:05;14.10;99.90
8676;DHT22;4375;52.486;13.424;2024-03-22T11:33:31;14.00;99.90
8676;DHT22;4375;52.486;13.424;2024-03-22T11:36:01;13.80;99.90
8676;DHT22;4375;52.486;13.424;2024-03-22T11:38:27;13.80;99.90
8676;DHT22;4375;52.486;13.424;2024-03-22T11:40:55;13.80;99.90
8676;DHT22;4375;52.486;13.424;2024-03-22T11:43:21;13.90;99.90
8676;DHT22;4375;52.486;13.424;2024-03-22T11:45:47;13.90;99.90
8676;DHT22;4375;52.486;13.424;2024-03-22T11:48:12;13.80;99.90
8676;DHT22;4375;52.486;13.424;2024-03-22T11:50:38;13.70;99.90
8676;DHT22;4375;52.486;13.424;2024-03-22T11:53:07;13.60;99.90
8676;DHT22;4375;52.486;13.424;2024-03-22T11:55:32;13.60;99.90
8676;DHT22;4375;52.486;13.424;2024-03-22T11:58:00;13.60;99.90
8676;DHT22;4375;52.486;13.424;2024-03-22T12:00:27;13.60;99.90
8676;DHT22;4375;52.486;13.424;2024-03-22T12:02:53;13.40;99.90
8676;DHT22;4375;52.486;13.424;2024-03-22T12:05:20;13.50;99.90
8676;DHT22;4375;52.486;13.424;2024-03-22T12:07:45;13.60;99.90
8676;DHT22;4375;52.486;13.424;2024-03-22T12:10:11;13.60;99.90
8676;DHT22;4375;52.486;13.424;2024-03-22T12:12:37;13.50;99.90
8676;DHT22;4375;52.486;13.424;2024-03-22T12:15:03;13.50;99.90
8676;DHT22;4375;52.486;13.424;2024-03-22T12:17:29;13.60;99.90
8676;DHT22;4375;52.486;13.424;2024-03-22T12:19:55;13.50;99.90
8676;DHT22;4375;52.486;13.424;2024-03-22T12:22:22;13.50;99.90
8676;DHT22;4375;52.486;13.424;2024-03-22T12:24:47;13.50;99.90
8676;DHT22;4375;52.486;13.424;2024-03-22T12:27:13;13.50;99.90
8676;DHT22;4375;52.486;13.424;2024-03-22T12:29:38;13.30;99.90
8676;DHT22;4375;52.486;13.424;2024-03-22T12:32:04;13.30;99.90
8676;DHT22;4375;52.486;13.424;2024-03-22T12:34:30;13.30;99.90
8676;DHT22;4375;52.486;13.424;2024-03-22T12:36:58;13.40;99.90
8676;DHT22;4375;52.486;13.424;2024-03-22T12:39:24;13.30;99.90
8676;DHT22;4375;52.486;13.424;2024-03-22T12:41:49;13.30;99.90
8676;DHT22;4375;52.486;13.424;2024-03-22T12:44:15;13.30;99.90
8676;DHT22;4375;52.486;13.424;2024-03-22T12:46:41;13.00;99.90
8676;DHT22;4375;52.486;13.424;2024-03-22T12:49:08;12.90;99.90
8676;DHT22;4375;52.486;13.424;2024-03-22T12:51:37;12.90;99.90
8676;DHT22;4375;52.486;13.424;2024-03-22T12:54:03;13.00;99.90
8676;DHT22;4375;52.486;13.424;2024-03-22T12:56:30;13.00;99.90
8676;DHT22;4375;52.486;13.424;2024-03-22T12:58:56;13.00;99.90
8676;DHT22;4375;52.486;13.424;2024-03-22T13:01:22;12.90;99.90
8676;DHT22;4375;52.486;13.424;2024-03-22T13:03:47;12.90;99.90
8676;DHT22;4375;52.486;13.424;2024-03-22T13:06:13;12.80;99.90
8676;DHT22;4375;52.486;13.424;2024-03-22T13:08:39;12.80;99.90
8676;DHT22;4375;52.486;13.424;2024-03-22T13:11:04;12.70;99.90
8676;DHT22;4375;52.486;13.424;2024-03-22T13:13:30;12.60;99.90
8676;DHT22;4375;52.486;13.424;2024-03-22T13:15:58;12.60;99.90
8676;DHT22;4375;52.486;13.424;2024-03-22T13:18:24;12.40;99.90
8676;DHT22;4375;52.486;13.424;2024-03-22T13:20:50;12.50;99.90
8676;DHT22;4375;52.486;13.424;2024-03-22T13:23:15;12.50;99.90
8676;DHT22;4375;52.486;13.424;2024-03-22T13:25:41;12.50;99.90
8676;DHT22;4375;52.486;13.424;2024-03-22T13:28:06;12.40;99.90
8676;DHT22;4375;52.486;13.424;2024-03-22T13:30:32;12.30;99.90
8676;DHT22;4375;52.486;13.424;2024-03-22T13:32:57;12.30;99.90
8676;DHT22;4375;52.486;13.424;2024-03-22T13:35:27;12.40;99.90
8676;DHT22;4375;52.486;13.424;2024-03-22T13:37:56;12.40;99.90
8676;DHT22;4375;52.486;13.424;2024-03-22T13:40:22;12.40;99.90
8676;DHT22;4375;52.486;13.424;2024-03-22T13:42:48;12.50;99.90
8676;DHT22;4375;52.486;13.424;2024-03-22T13:45:13;12.50;99.90
8676;DHT22;4375;52.486;13.424;2024-03-22T13:47:39;12.50;99.90
8676;DHT22;4375;52.486;13.424;2024-03-22T13:50:07;12.60;99.90
8676;DHT22;4375;52.486;13.424;2024-03-22T13:52:35;12.70;99.90
8676;DHT22;4375;52.486;13.424;2024-03-22T13:55:02;12.70;99.90
8676;DHT22;4375;52.486;13.424;2024-03-22T13:57:27;12.70;99.90
8676;DHT22;4375;52.486;13.424;2024-03-22T13:59:53;12.80;99.90
8676;DHT22;4375;52.486;13.424;2024-03-22T14:02:19;12.90;99.90
8676;DHT22;4375;52.486;13.424;2024-03-22T14:04:45;12.90;99.90
8676;DHT22;4375;52.486;13.424;2024-03-22T14:07:11;12.90;99.90
8676;DHT22;4375;52.486;13.424;2024-03-22T14:09:36;13.10;99.90
8676;DHT22;4375;52.486;13.424;2024-03-22T14:12:03;13.20;99.90
8676;DHT22;4375;52.486;13.424;2024-03-22T14:14:29;13.10;99.90
8676;DHT22;4375;52.486;13.424;2024-03-22T14:16:55;13.00;99.90
8676;DHT22;4375;52.486;13.424;2024-03-22T14:19:21;13.00;99.90
8676;DHT22;4375;52.486;13.424;2024-03-22T14:21:46;13.00;99.90
8676;DHT22;4375;52.486;13.424;2024-03-22T14:24:12;12.90;99.90
8676;DHT22;4375;52.486;13.424;2024-03-22T14:26:38;12.90;99.90
8676;DHT22;4375;52.486;13.424;2024-03-22T14:29:08;12.90;99.90
8676;DHT22;4375;52.486;13.424;2024-03-22T14:31:34;13.00;99.90
8676;DHT22;4375;52.486;13.424;2024-03-22T14:34:00;13.00;99.90
8676;DHT22;4375;52.486;13.424;2024-03-22T14:36:25;12.90;99.90
8676;DHT22;4375;52.486;13.424;2024-03-22T14:38:52;12.90;99.90
8676;DHT22;4375;52.486;13.424;2024-03-22T14:41:20;13.00;99.90
8676;DHT22;4375;52.486;13.424;2024-03-22T14:43:45;13.10;99.90
8676;DHT22;4375;52.486;13.424;2024-03-22T14:46:11;13.10;99.90
8676;DHT22;4375;52.486;13.424;2024-03-22T14:48:37;12.80;99.90
8676;DHT22;4375;52.486;13.424;2024-03-22T14:51:02;12.90;99.90
8676;DHT22;4375;52.486;13.424;2024-03-22T14:53:28;12.90;99.90
8676;DHT22;4375;52.486;13.424;2024-03-22T14:55:58;13.00;99.90
8676;DHT22;4375;52.486;13.424;2024-03-22T14:58:27;12.90;99.90
8676;DHT22;4375;52.486;13.424;2024-03-22T15:00:59;12.90;99.90
8676;DHT22;4375;52.486;13.424;2024-03-22T15:03:24;12.80;99.90
8676;DHT22;4375;52.486;13.424;2024-03-22T15:05:51;12.80;99.90
8676;DHT22;4375;52.486;13.424;2024-03-22T15:08:17;12.90;99.90
8676;DHT22;4375;52.486;13.424;2024-03-22T15:10:43;12.90;99.90
8676;DHT22;4375;52.486;13.424;2024-03-22T15:13:09;12.70;99.90
8676;DHT22;4375;52.486;13.424;2024-03-22T15:15:36;12.70;99.90
8676;DHT22;4375;52.486;13.424;2024-03-22T15:18:01;12.70;99.90
8676;DHT22;4375;52.486;13.424;2024-03-22T15:20:27;12.70;99.90
8676;DHT22;4375;52.486;13.424;2024-03-22T15:22:54;12.70;99.90
8676;DHT22;4375;52.486;13.424;2024-03-22T15:25:21;12.60;99.90
8676;DHT22;4375;52.486;13.424;2024-03-22T15:27:46;12.50;99.90
8676;DHT22;4375;52.486;13.424;2024-03-22T15:30:13;12.40;99.90
8676;DHT22;4375;52.486;13.424;2024-03-22T15:32:39;12.50;99.90
8676;DHT22;4375;52.486;13.424;2024-03-22T15:35:05;12.40;99.90
8676;DHT22;4375;52.486;13.424;2024-03-22T15:37:34;12.50;99.90
8676;DHT22;4375;52.486;13.424;2024-03-22T15:39:59;12.30;99.90
8676;DHT22;4375;52.486;13.424;2024-03-22T15:42:25;12.30;99.90
8676;DHT22;4375;52.486;13.424;2024-03-22T15:44:51;12.50;99.90